Aérodrome :







RETROUVEZ-NOUS SUR...

 
LOGIN :

S'inscrire | Disclaimer

   EN    FR    IT 

 









Légende :    VFR   VFR Marginal   IFR   IFR Intensif   IFR Très Intensif
Visi : 
Plafond : 
>= 8 km
>= 3000ft
5 à 8 km
1000 à 3000 ft
1500m à 5 km
500 à 1000 ft
800 à 1500m
200 à 500 ft
< 800m
< 200 ft
Symboles :   Orages  Brouillard  Fortes neiges  Fortes précipitations  Vent > 20 kt






- Altitude de l'aérodrome : 232 ft
- Code IATA : YQM


CYQM - Greater Moncton International

DERNIER METAR :
  • 200600Z 34014KT 6SM -SN DRSN OVC007 M04/M05 A2968 RMK SF8 /S02/ SLP058

METARs EXPIRÉS :
  • 200500Z 35014KT 12SM -SN DRSN OVC006 M05/M06 A2966 RMK SF8 SLP050
  • 200400Z 35015G25KT 6SM -SN DRSN OVC008 M04/M06 A2963 RMK SF8 SLP041
  • 200300Z 34012KT 6SM -SN DRSN OVC009 M04/M05 A2962 RMK SF8 SLP036

TAF TAF CYQM
Valide du 20 à 06h jusqu'au 21 à 06h UTC


200538Z 2006/2106 34012G22KT 3SM -SN OVC006
TEMPO 2006/2008 P6SM NSW OVC012
PROB30 2006/2008 2SM -FZDZ BR OVC008
FM200800 35010G20KT P6SM OVC015
TEMPO 2008/2012 5SM -SN OVC008
FM201200 35010KT P6SM BKN015
BECMG 2016/2018 26010KT SCT015
FM210100 28010KT P6SM FEW025 RMK NXT FCST BY 201200Z



MET'MAP, la Météo Aéronautique d'un coup d'oeil ! - Copyright ORBIFLY Décembre 2007 - Disclaimer

ORBIFLY MET'MAP TEAM :

Programmation & Développement : Alexandra Zaïnal
Sur une idée originale de : Baudouin d'Aumeries
Assistance à la programmation : Marc-Olivier Méhu
Soutien technique & logistique : Manuel Goepfert

Contact : metmap@orbifly.com




SOURCES & CREDITS :

   NOAA